Portada
Imágenes satélite Pronóstico 15 díasClimaPredicción Marítima Ciclones Rayo AeropuertosFAQ Noticias Acerca
El tiempo : Europa África América del Norte América del Sur Asia Australia-Oceanía Otros
Idiomas Contacto

Ezeiza, Argentina

latitud: 34-49S, longitud: 058-32W, altitud: 20 m


METAR: SAEZ 210000Z 05006KT CAVOK 19/11 Q1020
TAF: SAEZ 202300Z 2100/2124 06005KT CAVOK TX28/2118Z TN11/2109Z PROB40 TEMPO 2107/2111 3000 MIFGBR BECMG 2112/2115 36010KT

Hora: 21:30 (00:30 UTC)

Observación

El informe se hizo hace 30 minutos, a las 00:00 UTC  
Viento 06 kt del noreste
Temperatura 19°C
Humedad 60%
Presión 1020 hPa
Visibilidad 10 km o más
sin nubes por debajo de 1500 m y sin presencia de cumulonimbus.

Cambiar las unidades

Pronóstico

El informe se hizo hace 01 hora y 30 minutos, a las 23:00 UTC  
Pronóstico válido del 21 a las 00 UTC al 21 a las 24 UTC
Viento 05 kt del este-noreste
Visibilidad 10 km o más
sin nubes por debajo de 1500 m y sin presencia de cumulonimbus.
Probabilidad 40% :
Temporalmente
del 21 a las 07 UTC al 21 a las 11 UTC
Visibilidad 3000 m
Evolucionando progresivamente
del 21 a las 12 UTC al 21 a las 15 UTC
Viento 10 kt del norte
La información que se ofrece en estas páginas está sujeta a una cláusula de exención de responsabilidad
El tiempo : Europa África América del Norte América del Sur Asia Australia-Oceanía Otros
Imágenes satélite Pronóstico 15 díasClimaPredicción Marítima Ciclones Rayo AeropuertosFAQ Idiomas Contacto Noticias Acerca